sensor_id;sensor_type;location;lat;lon;timestamp;pressure;altitude;pressure_sealevel;temperature;humidity
72210;BME280;60113;48.762;12.302;2023-07-30T00:02:08;96849.78;;;16.30;85.77
72210;BME280;60113;48.762;12.302;2023-07-30T00:04:33;96843.84;;;16.28;86.10
72210;BME280;60113;48.762;12.302;2023-07-30T00:07:04;96839.66;;;16.25;85.79
72210;BME280;60113;48.762;12.302;2023-07-30T00:09:32;96837.19;;;16.23;85.50
72210;BME280;60113;48.762;12.302;2023-07-30T00:12:08;96818.47;;;16.25;88.93
72210;BME280;60113;48.762;12.302;2023-07-30T00:14:50;96816.81;;;16.24;86.98
72210;BME280;60113;48.762;12.302;2023-07-30T00:17:32;96818.97;;;16.29;85.84
72210;BME280;60113;48.762;12.302;2023-07-30T00:20:01;96818.13;;;16.28;85.68
72210;BME280;60113;48.762;12.302;2023-07-30T00:22:29;96811.03;;;16.29;86.19
72210;BME280;60113;48.762;12.302;2023-07-30T00:24:56;96813.66;;;16.29;86.93
72210;BME280;60113;48.762;12.302;2023-07-30T00:27:24;96810.03;;;16.30;85.71
72210;BME280;60113;48.762;12.302;2023-07-30T00:29:59;96812.66;;;16.30;86.11
72210;BME280;60113;48.762;12.302;2023-07-30T00:32:36;96816.00;;;16.32;86.83
72210;BME280;60113;48.762;12.302;2023-07-30T00:35:06;96816.34;;;16.37;87.17
72210;BME280;60113;48.762;12.302;2023-07-30T00:37:31;96811.69;;;16.39;85.92
72210;BME280;60113;48.762;12.302;2023-07-30T00:40:00;96823.97;;;16.40;85.59
72210;BME280;60113;48.762;12.302;2023-07-30T00:42:31;96826.63;;;16.40;85.92
72210;BME280;60113;48.762;12.302;2023-07-30T00:44:59;96829.91;;;16.42;85.47
72210;BME280;60113;48.762;12.302;2023-07-30T00:47:25;96832.72;;;16.41;85.16
72210;BME280;60113;48.762;12.302;2023-07-30T00:50:01;96838.38;;;16.37;86.29
72210;BME280;60113;48.762;12.302;2023-07-30T00:52:29;96833.38;;;16.34;86.96
72210;BME280;60113;48.762;12.302;2023-07-30T00:54:57;96836.38;;;16.31;86.62
72210;BME280;60113;48.762;12.302;2023-07-30T00:57:25;96838.38;;;16.29;86.65
72210;BME280;60113;48.762;12.302;2023-07-30T00:59:55;96838.69;;;16.26;87.07
72210;BME280;60113;48.762;12.302;2023-07-30T01:02:21;96839.66;;;16.25;88.25
72210;BME280;60113;48.762;12.302;2023-07-30T01:04:52;96839.84;;;16.23;88.54
72210;BME280;60113;48.762;12.302;2023-07-30T01:07:20;96841.50;;;16.24;88.59
72210;BME280;60113;48.762;12.302;2023-07-30T01:09:46;96850.94;;;16.27;90.38
72210;BME280;60113;48.762;12.302;2023-07-30T01:12:17;96846.31;;;16.29;89.04
72210;BME280;60113;48.762;12.302;2023-07-30T01:14:45;96844.84;;;16.35;88.51
72210;BME280;60113;48.762;12.302;2023-07-30T01:17:12;96844.34;;;16.40;89.32
72210;BME280;60113;48.762;12.302;2023-07-30T01:19:38;96843.53;;;16.47;89.59
72210;BME280;60113;48.762;12.302;2023-07-30T01:22:06;96847.31;;;16.53;88.53
72210;BME280;60113;48.762;12.302;2023-07-30T01:24:44;96845.88;;;16.59;88.76
72210;BME280;60113;48.762;12.302;2023-07-30T01:27:15;96848.81;;;16.64;89.77
72210;BME280;60113;48.762;12.302;2023-07-30T01:32:40;96849.97;;;16.70;88.35
72210;BME280;60113;48.762;12.302;2023-07-30T01:35:09;96841.03;;;16.71;87.98
72210;BME280;60113;48.762;12.302;2023-07-30T01:37:39;96855.97;;;16.72;88.16
72210;BME280;60113;48.762;12.302;2023-07-30T01:40:07;96840.88;;;16.72;88.23
72210;BME280;60113;48.762;12.302;2023-07-30T01:42:36;96843.69;;;16.71;88.79
72210;BME280;60113;48.762;12.302;2023-07-30T01:45:08;96841.03;;;16.71;90.42
72210;BME280;60113;48.762;12.302;2023-07-30T01:47:36;96841.03;;;16.71;89.24
72210;BME280;60113;48.762;12.302;2023-07-30T01:50:02;96840.22;;;16.70;87.69
72210;BME280;60113;48.762;12.302;2023-07-30T01:52:40;96842.84;;;16.70;87.70
72210;BME280;60113;48.762;12.302;2023-07-30T01:55:08;96841.22;;;16.69;87.09
72210;BME280;60113;48.762;12.302;2023-07-30T01:57:37;96848.31;;;16.69;87.98
72210;BME280;60113;48.762;12.302;2023-07-30T02:00:05;96852.16;;;16.66;87.18
72210;BME280;60113;48.762;12.302;2023-07-30T02:02:40;96855.31;;;16.61;87.93
72210;BME280;60113;48.762;12.302;2023-07-30T02:05:14;96854.94;;;16.56;88.09
72210;BME280;60113;48.762;12.302;2023-07-30T02:07:39;96857.47;;;16.49;87.84
72210;BME280;60113;48.762;12.302;2023-07-30T02:10:08;96865.06;;;16.44;88.86
72210;BME280;60113;48.762;12.302;2023-07-30T02:12:51;96848.81;;;16.39;88.71
72210;BME280;60113;48.762;12.302;2023-07-30T02:15:17;96832.56;;;16.34;89.01
72210;BME280;60113;48.762;12.302;2023-07-30T02:17:42;96840.03;;;16.30;88.35
72210;BME280;60113;48.762;12.302;2023-07-30T02:20:08;96838.53;;;16.28;88.75
72210;BME280;60113;48.762;12.302;2023-07-30T02:22:46;96844.16;;;16.24;89.03
72210;BME280;60113;48.762;12.302;2023-07-30T02:25:11;96837.34;;;16.22;88.96
72210;BME280;60113;48.762;12.302;2023-07-30T02:27:49;96840.16;;;16.20;89.88
72210;BME280;60113;48.762;12.302;2023-07-30T02:30:17;96829.72;;;16.19;88.54
72210;BME280;60113;48.762;12.302;2023-07-30T02:32:42;96831.72;;;16.17;90.64
72210;BME280;60113;48.762;12.302;2023-07-30T02:35:11;96832.53;;;16.17;89.07
72210;BME280;60113;48.762;12.302;2023-07-30T02:37:39;96837.03;;;16.17;88.81
72210;BME280;60113;48.762;12.302;2023-07-30T02:40:13;96837.19;;;16.15;89.60
72210;BME280;60113;48.762;12.302;2023-07-30T02:42:38;96843.63;;;16.12;90.58
72210;BME280;60113;48.762;12.302;2023-07-30T02:45:06;96851.72;;;16.11;90.61
72210;BME280;60113;48.762;12.302;2023-07-30T02:47:32;96856.38;;;16.09;91.21
72210;BME280;60113;48.762;12.302;2023-07-30T02:50:01;96851.25;;;16.07;96.04
72210;BME280;60113;48.762;12.302;2023-07-30T02:52:30;96863.97;;;16.04;98.99
72210;BME280;60113;48.762;12.302;2023-07-30T02:55:04;96855.31;;;15.93;97.01
72210;BME280;60113;48.762;12.302;2023-07-30T02:57:42;96849.81;;;15.86;95.52
72210;BME280;60113;48.762;12.302;2023-07-30T03:00:08;96838.88;;;15.81;93.97
72210;BME280;60113;48.762;12.302;2023-07-30T03:02:40;96858.72;;;15.77;94.27
72210;BME280;60113;48.762;12.302;2023-07-30T03:05:09;96856.38;;;15.74;97.01
72210;BME280;60113;48.762;12.302;2023-07-30T03:07:40;96841.66;;;15.71;95.47
72210;BME280;60113;48.762;12.302;2023-07-30T03:10:09;96834.88;;;15.69;96.74
72210;BME280;60113;48.762;12.302;2023-07-30T03:12:46;96833.34;;;15.66;96.04
72210;BME280;60113;48.762;12.302;2023-07-30T03:15:20;96829.38;;;15.62;94.87
72210;BME280;60113;48.762;12.302;2023-07-30T03:18:01;96827.19;;;15.57;94.05
72210;BME280;60113;48.762;12.302;2023-07-30T03:20:38;96826.03;;;15.52;92.33
72210;BME280;60113;48.762;12.302;2023-07-30T03:23:16;96829.97;;;15.47;92.25
72210;BME280;60113;48.762;12.302;2023-07-30T03:25:41;96823.50;;;15.42;91.73
72210;BME280;60113;48.762;12.302;2023-07-30T03:28:06;96840.69;;;15.37;94.69
72210;BME280;60113;48.762;12.302;2023-07-30T03:30:34;96836.84;;;15.32;92.75
72210;BME280;60113;48.762;12.302;2023-07-30T03:33:02;96832.03;;;15.27;91.25
72210;BME280;60113;48.762;12.302;2023-07-30T03:35:28;96836.97;;;15.22;90.88
72210;BME280;60113;48.762;12.302;2023-07-30T03:37:53;96839.22;;;15.17;91.37
72210;BME280;60113;48.762;12.302;2023-07-30T03:40:22;96836.09;;;15.13;92.34
72210;BME280;60113;48.762;12.302;2023-07-30T03:42:59;96839.19;;;15.08;92.67
72210;BME280;60113;48.762;12.302;2023-07-30T03:45:24;96829.75;;;15.06;94.42
72210;BME280;60113;48.762;12.302;2023-07-30T03:47:59;96831.03;;;15.02;92.56
72210;BME280;60113;48.762;12.302;2023-07-30T03:50:24;96837.63;;;14.97;93.22
72210;BME280;60113;48.762;12.302;2023-07-30T03:52:55;96840.59;;;14.94;92.90
72210;BME280;60113;48.762;12.302;2023-07-30T03:55:29;96849.97;;;14.88;92.68
72210;BME280;60113;48.762;12.302;2023-07-30T03:57:55;96859.19;;;14.84;92.09
72210;BME280;60113;48.762;12.302;2023-07-30T04:00:23;96860.66;;;14.79;91.19
72210;BME280;60113;48.762;12.302;2023-07-30T04:02:48;96857.59;;;14.73;91.35
72210;BME280;60113;48.762;12.302;2023-07-30T04:05:14;96854.75;;;14.67;91.04
72210;BME280;60113;48.762;12.302;2023-07-30T04:07:39;96857.00;;;14.61;91.80
72210;BME280;60113;48.762;12.302;2023-07-30T04:10:07;96856.94;;;14.53;91.38
72210;BME280;60113;48.762;12.302;2023-07-30T04:12:33;96860.19;;;14.47;92.41
72210;BME280;60113;48.762;12.302;2023-07-30T04:14:58;96856.88;;;14.45;93.20
72210;BME280;60113;48.762;12.302;2023-07-30T04:17:26;96872.72;;;14.45;93.69
72210;BME280;60113;48.762;12.302;2023-07-30T04:19:54;96895.53;;;14.46;92.91
72210;BME280;60113;48.762;12.302;2023-07-30T04:22:20;96896.53;;;14.45;93.99
72210;BME280;60113;48.762;12.302;2023-07-30T04:24:51;96903.47;;;14.46;100.00
72210;BME280;60113;48.762;12.302;2023-07-30T04:27:17;96899.66;;;14.48;100.00
72210;BME280;60113;48.762;12.302;2023-07-30T04:29:42;96892.44;;;14.50;97.32
72210;BME280;60113;48.762;12.302;2023-07-30T04:32:07;96899.22;;;14.53;96.84
72210;BME280;60113;48.762;12.302;2023-07-30T04:34:35;96899.91;;;14.55;98.27
72210;BME280;60113;48.762;12.302;2023-07-30T04:37:10;96901.19;;;14.51;100.00
72210;BME280;60113;48.762;12.302;2023-07-30T04:39:38;96904.00;;;14.49;100.00
72210;BME280;60113;48.762;12.302;2023-07-30T04:42:04;96899.00;;;14.46;100.00
72210;BME280;60113;48.762;12.302;2023-07-30T04:44:32;96901.81;;;14.45;97.19
72210;BME280;60113;48.762;12.302;2023-07-30T04:47:03;96904.59;;;14.43;96.28
72210;BME280;60113;48.762;12.302;2023-07-30T04:49:32;96903.06;;;14.41;96.34
72210;BME280;60113;48.762;12.302;2023-07-30T04:51:57;96905.72;;;14.41;95.25
72210;BME280;60113;48.762;12.302;2023-07-30T04:54:22;96911.69;;;14.43;95.96
72210;BME280;60113;48.762;12.302;2023-07-30T04:56:57;96914.03;;;14.46;94.59
72210;BME280;60113;48.762;12.302;2023-07-30T04:59:25;96917.66;;;14.63;95.82
72210;BME280;60113;48.762;12.302;2023-07-30T05:02:00;96910.78;;;15.07;95.75
72210;BME280;60113;48.762;12.302;2023-07-30T05:04:28;96904.78;;;15.49;91.36
72210;BME280;60113;48.762;12.302;2023-07-30T05:06:53;96905.50;;;15.95;91.67
72210;BME280;60113;48.762;12.302;2023-07-30T05:09:22;96904.81;;;16.36;92.34
72210;BME280;60113;48.762;12.302;2023-07-30T05:12:02;96907.03;;;16.74;91.98
72210;BME280;60113;48.762;12.302;2023-07-30T05:14:34;96914.84;;;17.00;91.38
72210;BME280;60113;48.762;12.302;2023-07-30T05:17:08;96929.25;;;16.98;91.02
72210;BME280;60113;48.762;12.302;2023-07-30T05:19:42;96930.06;;;16.73;91.72
72210;BME280;60113;48.762;12.302;2023-07-30T05:22:23;96937.97;;;16.48;92.11
72210;BME280;60113;48.762;12.302;2023-07-30T05:24:53;96939.75;;;16.31;91.63
72210;BME280;60113;48.762;12.302;2023-07-30T05:27:18;96940.72;;;16.22;92.94
72210;BME280;60113;48.762;12.302;2023-07-30T05:29:43;96941.50;;;16.14;95.13
72210;BME280;60113;48.762;12.302;2023-07-30T05:32:09;96947.63;;;16.06;93.98
72210;BME280;60113;48.762;12.302;2023-07-30T05:34:34;96944.63;;;16.01;94.85
72210;BME280;60113;48.762;12.302;2023-07-30T05:37:00;96943.13;;;15.98;93.68
72210;BME280;60113;48.762;12.302;2023-07-30T05:39:25;96946.06;;;15.95;93.97
72210;BME280;60113;48.762;12.302;2023-07-30T05:41:51;96949.69;;;15.94;93.39
72210;BME280;60113;48.762;12.302;2023-07-30T05:44:16;96936.44;;;15.94;93.87
72210;BME280;60113;48.762;12.302;2023-07-30T05:46:42;96935.34;;;15.97;93.58
72210;BME280;60113;48.762;12.302;2023-07-30T05:49:08;96940.16;;;16.02;93.14
72210;BME280;60113;48.762;12.302;2023-07-30T05:51:39;96948.47;;;16.07;93.22
72210;BME280;60113;48.762;12.302;2023-07-30T05:54:04;96943.34;;;16.14;93.94
72210;BME280;60113;48.762;12.302;2023-07-30T05:56:30;96960.13;;;16.22;93.44
72210;BME280;60113;48.762;12.302;2023-07-30T05:58:58;96955.00;;;16.29;92.01
72210;BME280;60113;48.762;12.302;2023-07-30T06:01:23;96956.34;;;16.33;91.79
72210;BME280;60113;48.762;12.302;2023-07-30T06:03:51;96958.66;;;16.36;92.27
72210;BME280;60113;48.762;12.302;2023-07-30T06:06:19;96962.66;;;16.41;91.79
72210;BME280;60113;48.762;12.302;2023-07-30T06:08:52;96965.66;;;16.46;91.51
72210;BME280;60113;48.762;12.302;2023-07-30T06:11:18;96960.88;;;16.49;92.29
72210;BME280;60113;48.762;12.302;2023-07-30T06:13:46;96956.72;;;16.55;92.02
72210;BME280;60113;48.762;12.302;2023-07-30T06:16:12;96959.25;;;16.65;92.07
72210;BME280;60113;48.762;12.302;2023-07-30T06:18:38;96960.75;;;16.76;91.55
72210;BME280;60113;48.762;12.302;2023-07-30T06:21:04;96964.41;;;16.92;91.78
72210;BME280;60113;48.762;12.302;2023-07-30T06:23:29;96968.41;;;17.04;91.91
72210;BME280;60113;48.762;12.302;2023-07-30T06:25:55;96970.94;;;17.14;93.30
72210;BME280;60113;48.762;12.302;2023-07-30T06:28:23;96957.50;;;17.24;92.57
72210;BME280;60113;48.762;12.302;2023-07-30T06:30:49;96975.59;;;17.29;92.17
72210;BME280;60113;48.762;12.302;2023-07-30T06:33:15;96963.78;;;17.31;91.66
72210;BME280;60113;48.762;12.302;2023-07-30T06:35:43;96971.59;;;17.33;93.80
72210;BME280;60113;48.762;12.302;2023-07-30T06:38:11;96972.91;;;17.37;92.37
72210;BME280;60113;48.762;12.302;2023-07-30T06:40:39;96969.41;;;17.36;93.49
72210;BME280;60113;48.762;12.302;2023-07-30T06:43:05;96977.88;;;17.40;92.77
72210;BME280;60113;48.762;12.302;2023-07-30T06:45:30;96976.03;;;17.49;92.29
72210;BME280;60113;48.762;12.302;2023-07-30T06:48:06;96960.09;;;17.57;92.84
72210;BME280;60113;48.762;12.302;2023-07-30T06:50:40;96974.53;;;17.63;92.17
72210;BME280;60113;48.762;12.302;2023-07-30T06:53:05;96968.72;;;17.76;91.75
72210;BME280;60113;48.762;12.302;2023-07-30T06:55:33;96970.34;;;17.94;92.32
72210;BME280;60113;48.762;12.302;2023-07-30T06:57:59;96966.28;;;18.06;91.99
72210;BME280;60113;48.762;12.302;2023-07-30T07:00:24;96963.94;;;18.20;92.21
72210;BME280;60113;48.762;12.302;2023-07-30T07:02:50;96971.81;;;18.45;92.29
72210;BME280;60113;48.762;12.302;2023-07-30T07:05:16;96974.50;;;18.68;92.60
72210;BME280;60113;48.762;12.302;2023-07-30T07:07:44;96969.84;;;18.94;92.67
72210;BME280;60113;48.762;12.302;2023-07-30T07:10:15;96967.75;;;19.13;92.73
72210;BME280;60113;48.762;12.302;2023-07-30T07:12:42;96972.97;;;19.44;93.81
72210;BME280;60113;48.762;12.302;2023-07-30T07:15:10;96979.19;;;19.75;93.11
72210;BME280;60113;48.762;12.302;2023-07-30T07:17:35;96974.06;;;20.04;93.48
72210;BME280;60113;48.762;12.302;2023-07-30T07:20:04;96966.34;;;20.24;90.27
72210;BME280;60113;48.762;12.302;2023-07-30T07:22:34;96969.72;;;20.48;91.90
72210;BME280;60113;48.762;12.302;2023-07-30T07:25:11;96965.72;;;20.59;89.35
72210;BME280;60113;48.762;12.302;2023-07-30T07:27:37;96963.75;;;20.68;89.30
72210;BME280;60113;48.762;12.302;2023-07-30T07:30:20;96969.63;;;20.78;92.10
72210;BME280;60113;48.762;12.302;2023-07-30T07:32:50;96974.94;;;20.78;90.32
72210;BME280;60113;48.762;12.302;2023-07-30T07:35:19;96975.78;;;20.79;90.04
72210;BME280;60113;48.762;12.302;2023-07-30T07:37:48;96965.50;;;20.76;89.59
72210;BME280;60113;48.762;12.302;2023-07-30T07:40:13;96969.22;;;20.81;89.42
72210;BME280;60113;48.762;12.302;2023-07-30T07:42:42;96970.81;;;20.76;88.58
72210;BME280;60113;48.762;12.302;2023-07-30T07:45:10;96971.72;;;20.83;85.95
72210;BME280;60113;48.762;12.302;2023-07-30T07:47:38;96976.03;;;20.84;85.86
72210;BME280;60113;48.762;12.302;2023-07-30T07:50:10;96982.94;;;20.93;86.22
72210;BME280;60113;48.762;12.302;2023-07-30T07:52:36;96969.16;;;21.11;86.16
72210;BME280;60113;48.762;12.302;2023-07-30T07:55:10;96972.19;;;21.30;86.47
72210;BME280;60113;48.762;12.302;2023-07-30T07:57:35;96964.56;;;21.27;80.25
72210;BME280;60113;48.762;12.302;2023-07-30T08:00:01;96970.88;;;21.48;86.87
72210;BME280;60113;48.762;12.302;2023-07-30T08:02:38;96972.59;;;21.56;87.17
72210;BME280;60113;48.762;12.302;2023-07-30T08:05:03;96970.06;;;21.47;83.89
72210;BME280;60113;48.762;12.302;2023-07-30T08:07:32;96960.28;;;21.33;82.58
72210;BME280;60113;48.762;12.302;2023-07-30T08:09:57;96964.25;;;21.15;84.32
72210;BME280;60113;48.762;12.302;2023-07-30T08:12:23;96971.31;;;21.01;81.66
72210;BME280;60113;48.762;12.302;2023-07-30T08:14:48;96969.19;;;21.18;82.28
72210;BME280;60113;48.762;12.302;2023-07-30T08:17:14;96966.25;;;21.35;84.33
72210;BME280;60113;48.762;12.302;2023-07-30T08:19:39;96973.06;;;21.38;81.37
72210;BME280;60113;48.762;12.302;2023-07-30T08:22:04;96983.75;;;21.66;83.71
72210;BME280;60113;48.762;12.302;2023-07-30T08:24:30;96973.28;;;21.93;80.15
72210;BME280;60113;48.762;12.302;2023-07-30T08:27:01;96972.50;;;22.00;81.93
72210;BME280;60113;48.762;12.302;2023-07-30T08:29:30;96979.69;;;21.99;82.47
72210;BME280;60113;48.762;12.302;2023-07-30T08:31:55;96977.97;;;21.84;79.61
72210;BME280;60113;48.762;12.302;2023-07-30T08:34:33;96981.25;;;21.58;77.89
72210;BME280;60113;48.762;12.302;2023-07-30T08:37:01;96983.41;;;21.47;79.62
72210;BME280;60113;48.762;12.302;2023-07-30T08:39:29;96969.16;;;21.33;77.75
72210;BME280;60113;48.762;12.302;2023-07-30T08:41:54;96977.03;;;20.98;79.61
72210;BME280;60113;48.762;12.302;2023-07-30T08:44:23;96979.66;;;20.76;80.75
72210;BME280;60113;48.762;12.302;2023-07-30T08:46:49;96980.09;;;20.80;81.63
72210;BME280;60113;48.762;12.302;2023-07-30T08:49:17;96976.03;;;20.99;81.50
72210;BME280;60113;48.762;12.302;2023-07-30T08:51:42;96972.09;;;21.45;81.64
72210;BME280;60113;48.762;12.302;2023-07-30T08:54:12;96969.69;;;21.79;81.54
72210;BME280;60113;48.762;12.302;2023-07-30T08:56:38;96967.25;;;22.20;80.86
72210;BME280;60113;48.762;12.302;2023-07-30T08:59:05;96962.59;;;22.35;80.49
72210;BME280;60113;48.762;12.302;2023-07-30T09:01:38;96960.53;;;22.38;77.20
72210;BME280;60113;48.762;12.302;2023-07-30T09:04:06;96964.06;;;22.52;79.37
72210;BME280;60113;48.762;12.302;2023-07-30T09:06:32;96961.63;;;22.57;77.47
72210;BME280;60113;48.762;12.302;2023-07-30T09:08:57;96955.25;;;22.58;79.65
72210;BME280;60113;48.762;12.302;2023-07-30T09:11:26;96961.00;;;22.48;77.10
72210;BME280;60113;48.762;12.302;2023-07-30T09:13:54;96966.66;;;22.31;76.74
72210;BME280;60113;48.762;12.302;2023-07-30T09:16:26;96963.84;;;21.97;74.80
72210;BME280;60113;48.762;12.302;2023-07-30T09:18:52;96960.44;;;21.82;79.10
72210;BME280;60113;48.762;12.302;2023-07-30T09:21:34;96953.34;;;21.67;75.38
72210;BME280;60113;48.762;12.302;2023-07-30T09:24:03;96945.53;;;21.66;77.03
72210;BME280;60113;48.762;12.302;2023-07-30T09:26:45;96946.34;;;21.66;77.21
72210;BME280;60113;48.762;12.302;2023-07-30T09:29:10;96935.06;;;21.71;79.31
72210;BME280;60113;48.762;12.302;2023-07-30T09:31:52;96940.56;;;21.63;76.46
72210;BME280;60113;48.762;12.302;2023-07-30T09:34:23;96948.72;;;21.54;79.69
72210;BME280;60113;48.762;12.302;2023-07-30T09:36:55;96946.47;;;21.29;77.52
72210;BME280;60113;48.762;12.302;2023-07-30T09:39:21;96942.44;;;21.11;79.24
72210;BME280;60113;48.762;12.302;2023-07-30T09:41:49;96942.38;;;21.05;79.11
72210;BME280;60113;48.762;12.302;2023-07-30T09:44:17;96947.53;;;21.06;78.42
72210;BME280;60113;48.762;12.302;2023-07-30T09:46:44;96948.72;;;21.26;79.37
72210;BME280;60113;48.762;12.302;2023-07-30T09:49:10;96941.81;;;21.67;78.71
72210;BME280;60113;48.762;12.302;2023-07-30T09:51:39;96943.28;;;21.98;75.92
72210;BME280;60113;48.762;12.302;2023-07-30T09:54:09;96940.09;;;22.23;77.94
72210;BME280;60113;48.762;12.302;2023-07-30T09:56:39;96944.84;;;22.34;76.30
72210;BME280;60113;48.762;12.302;2023-07-30T09:59:06;96949.59;;;22.32;76.21
72210;BME280;60113;48.762;12.302;2023-07-30T10:01:43;96944.84;;;22.28;74.17
72210;BME280;60113;48.762;12.302;2023-07-30T10:04:12;96944.78;;;22.14;74.69
72210;BME280;60113;48.762;12.302;2023-07-30T10:06:49;96946.19;;;22.10;73.69
72210;BME280;60113;48.762;12.302;2023-07-30T10:09:17;96949.88;;;22.02;76.43
72210;BME280;60113;48.762;12.302;2023-07-30T10:11:45;96958.06;;;21.65;77.21
72210;BME280;60113;48.762;12.302;2023-07-30T10:14:12;96955.34;;;21.30;76.98
72210;BME280;60113;48.762;12.302;2023-07-30T10:16:38;96950.38;;;21.05;76.57
72210;BME280;60113;48.762;12.302;2023-07-30T10:19:03;96959.25;;;20.90;76.67
72210;BME280;60113;48.762;12.302;2023-07-30T10:21:32;96956.59;;;20.90;77.66
72210;BME280;60113;48.762;12.302;2023-07-30T10:24:04;96948.94;;;21.02;77.94
72210;BME280;60113;48.762;12.302;2023-07-30T10:26:32;96949.16;;;21.07;77.41
72210;BME280;60113;48.762;12.302;2023-07-30T10:29:17;96930.16;;;21.17;77.14
72210;BME280;60113;48.762;12.302;2023-07-30T10:31:51;96932.31;;;21.57;76.83
72210;BME280;60113;48.762;12.302;2023-07-30T10:34:17;96938.22;;;22.17;78.84
72210;BME280;60113;48.762;12.302;2023-07-30T10:36:47;96942.16;;;22.83;77.77
72210;BME280;60113;48.762;12.302;2023-07-30T10:39:28;96944.88;;;23.31;73.00
72210;BME280;60113;48.762;12.302;2023-07-30T10:41:57;96939.28;;;23.80;77.54
72210;BME280;60113;48.762;12.302;2023-07-30T10:44:32;96930.59;;;24.44;77.44
72210;BME280;60113;48.762;12.302;2023-07-30T10:47:02;96939.66;;;24.95;75.92
72210;BME280;60113;48.762;12.302;2023-07-30T10:49:39;96941.28;;;25.29;70.95
72210;BME280;60113;48.762;12.302;2023-07-30T10:52:08;96938.59;;;25.29;74.08
72210;BME280;60113;48.762;12.302;2023-07-30T10:54:48;96942.75;;;24.85;69.88
72210;BME280;60113;48.762;12.302;2023-07-30T10:57:14;96949.34;;;24.57;73.94
72210;BME280;60113;48.762;12.302;2023-07-30T10:59:39;96949.91;;;24.27;73.62
72210;BME280;60113;48.762;12.302;2023-07-30T11:02:15;96943.41;;;23.82;75.43
72210;BME280;60113;48.762;12.302;2023-07-30T11:04:40;96942.56;;;23.89;76.30
72210;BME280;60113;48.762;12.302;2023-07-30T11:07:08;96941.34;;;23.78;73.65
72210;BME280;60113;48.762;12.302;2023-07-30T11:09:39;96947.16;;;23.47;74.66
72210;BME280;60113;48.762;12.302;2023-07-30T11:12:08;96943.66;;;23.33;74.18
72210;BME280;60113;48.762;12.302;2023-07-30T11:14:39;96948.19;;;23.19;73.88
72210;BME280;60113;48.762;12.302;2023-07-30T11:17:17;96951.66;;;22.93;71.76
72210;BME280;60113;48.762;12.302;2023-07-30T11:19:48;96951.63;;;22.72;72.79
72210;BME280;60113;48.762;12.302;2023-07-30T11:22:29;96957.44;;;22.41;70.01
72210;BME280;60113;48.762;12.302;2023-07-30T11:25:01;96963.84;;;21.97;71.59
72210;BME280;60113;48.762;12.302;2023-07-30T11:27:47;96965.59;;;21.83;73.04
72210;BME280;60113;48.762;12.302;2023-07-30T11:30:15;96970.09;;;21.76;75.48
72210;BME280;60113;48.762;12.302;2023-07-30T11:32:46;96975.44;;;21.76;74.28
72210;BME280;60113;48.762;12.302;2023-07-30T11:35:16;96978.91;;;21.48;72.80
72210;BME280;60113;48.762;12.302;2023-07-30T11:37:44;96982.09;;;21.36;75.37
72210;BME280;60113;48.762;12.302;2023-07-30T11:40:10;96989.97;;;21.16;74.63
72210;BME280;60113;48.762;12.302;2023-07-30T11:42:39;96985.22;;;20.96;73.26
72210;BME280;60113;48.762;12.302;2023-07-30T11:45:20;96983.66;;;20.87;73.41
72210;BME280;60113;48.762;12.302;2023-07-30T11:47:52;96984.41;;;20.81;74.88
72210;BME280;60113;48.762;12.302;2023-07-30T11:50:17;96976.69;;;20.86;75.00
72210;BME280;60113;48.762;12.302;2023-07-30T11:52:56;96976.97;;;20.76;74.47
72210;BME280;60113;48.762;12.302;2023-07-30T11:55:36;96973.03;;;20.72;73.66
72210;BME280;60113;48.762;12.302;2023-07-30T11:58:06;96977.44;;;20.80;75.16
72210;BME280;60113;48.762;12.302;2023-07-30T12:00:32;96977.31;;;20.88;75.36
72210;BME280;60113;48.762;12.302;2023-07-30T12:03:04;96964.78;;;21.04;75.18
72210;BME280;60113;48.762;12.302;2023-07-30T12:05:34;96964.31;;;21.22;74.90
72210;BME280;60113;48.762;12.302;2023-07-30T12:08:03;96957.06;;;21.44;75.42
72210;BME280;60113;48.762;12.302;2023-07-30T12:10:45;96957.91;;;21.73;74.26
72210;BME280;60113;48.762;12.302;2023-07-30T12:13:18;96954.31;;;21.88;75.20
72210;BME280;60113;48.762;12.302;2023-07-30T12:15:50;96957.28;;;22.00;74.40
72210;BME280;60113;48.762;12.302;2023-07-30T12:18:16;96963.78;;;22.33;76.18
72210;BME280;60113;48.762;12.302;2023-07-30T12:20:45;96953.44;;;22.72;76.13
72210;BME280;60113;48.762;12.302;2023-07-30T12:23:10;96959.09;;;23.18;75.91
72210;BME280;60113;48.762;12.302;2023-07-30T12:25:44;96965.28;;;23.72;75.98
72210;BME280;60113;48.762;12.302;2023-07-30T12:28:10;96959.41;;;24.23;76.65
72210;BME280;60113;48.762;12.302;2023-07-30T12:30:36;96954.50;;;24.59;77.22
72210;BME280;60113;48.762;12.302;2023-07-30T12:33:05;96961.22;;;24.75;72.09
72210;BME280;60113;48.762;12.302;2023-07-30T12:35:32;96959.66;;;24.60;69.21
72210;BME280;60113;48.762;12.302;2023-07-30T12:37:58;96958.91;;;24.46;69.98
72210;BME280;60113;48.762;12.302;2023-07-30T12:40:23;96961.66;;;24.13;64.76
72210;BME280;60113;48.762;12.302;2023-07-30T12:42:51;96971.03;;;23.90;69.51
72210;BME280;60113;48.762;12.302;2023-07-30T12:45:24;96971.66;;;23.85;68.95
72210;BME280;60113;48.762;12.302;2023-07-30T12:48:08;96977.81;;;24.06;67.37
72210;BME280;60113;48.762;12.302;2023-07-30T12:50:33;96987.28;;;24.02;67.92
72210;BME280;60113;48.762;12.302;2023-07-30T12:52:58;96983.41;;;23.77;64.47
72210;BME280;60113;48.762;12.302;2023-07-30T12:55:24;96995.41;;;23.61;67.82
72210;BME280;60113;48.762;12.302;2023-07-30T12:58:01;97003.44;;;23.47;69.37
72210;BME280;60113;48.762;12.302;2023-07-30T13:00:29;97004.28;;;23.48;64.84
72210;BME280;60113;48.762;12.302;2023-07-30T13:03:01;97007.78;;;23.48;66.56
72210;BME280;60113;48.762;12.302;2023-07-30T13:05:39;97003.66;;;23.46;67.37